x

Tillamook, Or - 85 Nm Wnw Of Tillamook, Or (46089) Wave Buoy

12:50am - Mon 1st Sep 2014 All times are PDT. -7 hours from GMT.

  • Sig Wave height 4.6ft
  • Swell Direction
  • Peak Period 9s
  • Average Period 7s
  • Wind
    4mph, 7mph gusts
  • Sea Temp 66°f
  • Air Temp 65°f
  • Sea Pressure 1017.9mb
  • Tillamook, Or - 85 Nm Wnw Of Tillamook, Or
  • Tillamook, Or - 85 Nm Wnw Of Tillamook, Or

More Historic Weather Station data

Upgrade to MSW Pro to gain access to the past 30 days of data for over 8000 Wavebouys and Weather Stations around the globe.

Join Pro

Comparision Forecast

View Surf forecast
   
Mon 09/01 12:50am 4.5ft 9s 7s 4 7 mph 1017.9mb 66f 65f
Sun 08/31 11:50pm 4.5ft 9s 7s 4
mph
1017.6mb 66f 65f
10:50pm 5ft 10s 7s 2 4 mph 1017.6mb 66f 65f
9:50pm 5ft 10s 7s 2 4 mph 1017.8mb 66f 64f
8:50pm 5.5ft 10s 7s 2 4 mph 1017.5mb 66f 64f
7:50pm 5.5ft 10s 7s 2
mph
1017.5mb 66f 64f
6:50pm 5.5ft 10s 7s 2 4 mph 1017.5mb 66f 64f
5:50pm 5ft 10s 7s 4 7 mph 1017.7mb 66f 64f
4:50pm 6ft 10s 7s 4 7 mph 1017.7mb 66f 64f
3:50pm 6ft 10s 8s 4 7 mph 1017.8mb 66f 64f
2:50pm 5.5ft 9s 7s 4 7 mph 1018mb 65f 63f
1:50pm 5.5ft 10s 7s 7 9 mph 1017.9mb 65f 64f
12:50pm 6ft 10s 7s 7
mph
1018.3mb 65f 64f
11:50am 5ft 11s 7s 7 9 mph 1018.1mb 65f 64f
10:50am 6ft 11s 7s 4 7 mph 1017.9mb 65f 64f
9:50am 6ft 11s 7s 7
mph
1017.5mb 64f 64f
8:50am 6ft 10s 8s 7 9 mph 1017.3mb 64f 64f
7:50am 6ft 8s 7s 4 7 mph 1017.1mb 64f 64f
6:50am 6.5ft 10s 8s 2
mph
1016.8mb 64f 64f
5:50am 7ft 10s 8s 2 4 mph 1016.6mb 64f 64f
4:50am 6ft 11s 8s 4 7 mph 1016.5mb 65f 64f
3:50am 6ft 11s 8s 7 9 mph 1016.5mb 65f 64f
2:50am 6ft 10s 7s 7 9 mph 1016.5mb 65f 64f
1:50am 6ft 11s 7s 9 11 mph 1016.5mb 65f 65f
12:50am 6ft 11s 7s 7 9 mph 1016.3mb 65f 64f
Sat 08/30 11:50pm 6.5ft 11s 8s 7 9 mph 1016.5mb 65f 64f
10:50pm 6ft 11s 7s 9 11 mph 1016.5mb 65f 64f
9:50pm 6.5ft 9s 7s 7 11 mph 1016.1mb 65f 65f
8:50pm 6.5ft 11s 7s 4 7 mph 1015.8mb 65f 65f
7:50pm 6ft 10s 7s 4 7 mph 1015.5mb 65f 64f
6:50pm 7ft 9s 8s 9 13 mph 1015.3mb 66f 64f
5:50pm 6.5ft 11s 8s 7 11 mph 1015.3mb 66f 64f
4:50pm 7ft 11s 8s 7 11 mph 1015.3mb 66f 65f
3:50pm 6ft 11s 7s 9 11 mph 1015.1mb 65f 65f
2:50pm 5.5ft 11s 7s 7 11 mph 1015mb 65f 65f
1:50pm 5ft 11s 6s 9 13 mph 1014.7mb 65f 65f
12:50pm 5ft 12s 6s 9 13 mph 1014.5mb 65f 65f
11:50am 5ft 13s 6s 9 11 mph 1014.1mb 65f 65f
10:50am 4.5ft 13s 5s 11 16 mph 1013.8mb 65f 65f
9:50am 5ft 13s 6s 11 13 mph 1013.1mb 65f 65f
8:50am 4.5ft 13s 6s 11 18 mph 1012.6mb 64f 64f
7:50am 4.5ft 13s 6s 13 20 mph 1012.3mb 65f 64f
6:50am 4.5ft 13s 5s 11 16 mph 1011.8mb 65f 64f
5:50am 4.5ft 14s 5s 11 16 mph 1011.4mb 65f 63f
4:50am 4.5ft 13s 5s 13 20 mph 1011.2mb 65f 63f
3:50am 4.5ft 13s 6s 13 20 mph 1011mb 65f 65f
2:50am 3.5ft 14s 6s 11 16 mph 1011.8mb 65f 65f
1:50am 3.5ft 14s 7s 11 13 mph 1012.5mb 65f 64f
12:50am 4ft 13s 7s 9
mph
1013mb 65f 65f
Fri 08/29 11:50pm 3.5ft 15s 6s 7 11 mph 1013.8mb 65f 63f
10:50pm 4ft 14s 7s 9 11 mph 1014.1mb 65f 63f
9:50pm 4ft 13s 6s 9 11 mph 1014.7mb 65f 63f
8:50pm 4.5ft 14s 7s 11 16 mph 1014.8mb 65f 64f
7:50pm 4.5ft 13s 7s 7 11 mph 1014.6mb 66f 65f
6:50pm 4.5ft 13s 7s 4 7 mph 1014.9mb 66f 65f
5:50pm 4.5ft 14s 7s 4 7 mph 1015.1mb 66f 65f
4:50pm 4.5ft 14s 8s 4 7 mph 1015.5mb 66f 66f
3:50pm 4.5ft 14s 8s  -  mph 1015.5mb 66f 66f
2:50pm 4ft 14s 8s 2
mph
1015.7mb 65f 66f
1:50pm 4ft 14s 7s 4 7 mph 1016mb 65f 65f
12:50pm 4.5ft 12s 7s 4 7 mph 1016.2mb 65f 65f
11:50am 4.5ft 15s 7s 4
mph
1016.3mb 64f 65f
10:50am 4.5ft 14s 7s 4 7 mph 1016.1mb 64f 65f
9:50am 4.5ft 15s 8s 4 9 mph 1015.8mb 64f 65f
8:50am 4ft 15s 7s 4
mph
1015.7mb 64f 65f
7:50am 4ft 14s 8s 4 7 mph 1015.5mb 64f 64f
6:50am 4.5ft 15s 8s 4 7 mph 1015.1mb 64f 64f
5:50am 4ft 10s 8s 4
mph
1015mb 64f 64f
4:50am 4.5ft 15s 8s 4 7 mph 1015.4mb 64f 65f
3:50am 4ft 15s 9s 4 7 mph 1015.7mb 64f 65f
2:50am 3.5ft 10s 8s 4 7 mph 1015.9mb 64f 65f
1:50am 3.5ft 11s 8s 4 7 mph 1016.3mb 64f 65f
12:50am 3.5ft 11s 7s 4
mph
1016.9mb 65f 64f
Thu 08/28 11:50pm 4ft 10s 7s 2
mph
1017.3mb 65f 64f
10:50pm 4.5ft 11s 8s  -  2 mph 1017.9mb 64f 64f
9:50pm 4ft 16s 7s  -  2 mph 1018.2mb 65f 64f
8:50pm 3.5ft 16s 7s  -  2 mph 1018.4mb 65f 64f
7:50pm 3.5ft 16s 7s 4
mph
1018.5mb 65f 65f
6:50pm 3.5ft 16s 7s 4 7 mph 1018.5mb 65f 65f
5:50pm 3.5ft 10s 7s 4 7 mph 1019mb 65f 65f
4:50pm 3.5ft 16s 7s 4 7 mph 1019.5mb 65f 66f
3:50pm 3.5ft 16s 7s 4 7 mph 1019.7mb 65f 65f
2:50pm 3.5ft 16s 7s 4 7 mph 1019.8mb 65f 65f
1:50pm 3.5ft 11s 7s 4 7 mph 1020mb 64f 65f
12:50pm 3ft 11s 6s 4 7 mph 1020.3mb 64f 65f
11:50am 3.5ft 15s 6s 9 11 mph 1020.6mb 64f 64f
10:50am 3.5ft 16s 6s 9 11 mph 1020.5mb 64f 63f
9:50am 3ft 16s 6s 7
mph
1020.1mb 64f 64f
8:50am 3.5ft 16s 6s 4 7 mph 1020mb 64f 64f